Latest Weather Observations for Wadeye (Port Keats)

IDD60801

Issued at 7:01 pm CST Tuesday 21 April 2015 (issued every 30 minutes, with the page automatically refreshed every 10 minutes)

About weather observations | Map of weather stations | Latest weather observations for NT | Other Formats
Station Details ID: 014948 Name: PORT KEATS AIRPORT Lat: -14.25 Lon: 129.53 Height: 28.0 m
Data from the previous 72 hours. | See also: Recent months at Wadeye (Port Keats)
Date/Time
CST
Temp
°C
App
Temp
°C
Dew
Point
Rel
Hum
%
Delta-T
°C
Wind Press
QNH
hPa
Press
MSL
hPa
Rain
since 9 am
mm
Dir
 
Spd
km/h
Gust
km/h
Spd
kts
Gust
kts
21/07:00pm 26.7 27.6 16.0 52 6.6 S 6 7 3 4 1010.7 1010.5 0.0
21/06:30pm 28.3 28.6 14.9 44 8.1 SSE 7 11 4 6 1010.4 1010.2 0.0
21/06:00pm 29.5 29.5 14.1 39 9.3 S 7 11 4 6 1010.3 1010.1 0.0
21/05:30pm 30.8 30.6 13.6 35 10.3 S 7 11 4 6 1010.0 1009.8 0.0
21/05:00pm 31.3 29.7 11.7 30 11.5 S 11 17 6 9 1009.7 1009.5 0.0
21/04:30pm 32.3 29.5 11.5 28 12.2 SSE 17 20 9 11 1009.7 1009.5 0.0
21/04:00pm 32.5 29.6 11.1 27 12.5 ESE 17 24 9 13 1009.7 1009.5 0.0
21/03:30pm 32.2 28.9 10.8 27 12.4 SE 19 30 10 16 1009.8 1009.6 0.0
21/03:00pm 32.3 29.2 10.4 26 12.6 SE 17 26 9 14 1010.0 1009.8 0.0
21/02:30pm 32.0 29.0 10.7 27 12.3 SE 17 24 9 13 1010.5 1010.3 0.0
21/02:00pm 31.4 27.9 10.2 27 12.1 SE 19 26 10 14 1010.9 1010.7 0.0
21/01:30pm 31.5 28.2 9.7 26 12.4 SE 17 26 9 14 1011.3 1011.1 0.0
21/01:00pm 30.6 26.9 9.5 27 11.9 SE 19 28 10 15 1012.2 1012.0 0.0
21/12:30pm 29.9 26.1 8.9 27 11.7 SE 19 26 10 14 1012.6 1012.4 0.0
21/12:00pm 30.4 26.5 9.3 27 11.8 SSE 20 28 11 15 1013.0 1012.8 0.0
21/11:30am 29.9 25.7 9.9 29 11.3 SE 22 30 12 16 1013.4 1013.2 0.0
21/11:00am 28.6 24.4 8.3 28 11.1 SE 20 32 11 17 1013.6 1013.4 0.0
21/10:30am 27.7 22.6 7.5 28 10.8 ESE 24 35 13 19 1013.9 1013.7 0.0
21/10:00am 27.5 23.0 8.4 30 10.4 SE 22 32 12 17 1013.7 1013.5 0.0
21/09:30am 26.6 21.2 8.1 31 10.0 SE 26 33 14 18 1013.9 1013.7 0.0
21/09:00am 25.7 21.1 8.2 33 9.4 SE 22 33 12 18 1013.8 1013.6 0.0
21/08:30am 25.2 21.1 8.7 35 8.9 SE 20 30 11 16 1013.6 1013.4 0.0
21/08:00am 24.8 20.8 8.3 35 8.8 SE 19 26 10 14 1013.2 1013.0 0.0
21/07:30am 24.4 20.6 9.2 38 8.2 SE 19 24 10 13 1013.2 1013.0 0.0
21/07:00am 24.0 20.3 9.6 40 7.8 SE 19 24 10 13 1012.9 1012.7 0.0
21/06:30am 24.4 21.2 9.9 40 8.0 SSE 17 22 9 12 1012.5 1012.3 0.0
21/06:00am 24.5 21.8 10.4 41 7.8 SSE 15 19 8 10 1011.9 1011.7 0.0
21/05:30am 24.7 21.9 11.3 43 7.6 SE 17 22 9 12 1011.7 1011.5 0.0
21/05:00am 24.8 22.5 11.7 44 7.4 SE 15 20 8 11 1011.7 1011.5 0.0
21/04:30am 25.1 22.9 12.0 44 7.5 SE 15 20 8 11 1011.5 1011.3 0.0
21/04:00am 25.8 22.8 11.9 42 8.0 SE 19 24 10 13 1011.4 1011.2 0.0
21/03:30am 25.9 23.0 12.4 43 7.8 SE 19 24 10 13 1011.1 1010.9 0.0
21/03:00am 25.9 24.6 13.7 47 7.2 SE 13 19 7 10 1011.5 1011.3 0.0
21/02:30am 25.7 24.5 13.9 48 7.0 SE 13 17 7 9 1011.5 1011.3 0.0
21/02:00am 26.1 24.6 14.2 48 7.1 SE 15 17 8 9 1011.4 1011.2 0.0
21/01:30am 25.9 25.2 14.4 49 6.9 SE 11 13 6 7 1011.8 1011.6 0.0
21/01:00am 26.5 25.8 14.3 47 7.3 SE 11 15 6 8 1011.9 1011.7 0.0
21/12:30am 26.9 25.8 14.3 46 7.5 SE 13 19 7 10 1011.9 1011.7 0.0
21/12:00am 26.8 25.8 14.5 46 7.4 SE 13 15 7 8 1012.2 1012.0 0.0
 
Date/Time
CST
Temp
°C
App
Temp
°C
Dew
Point
Rel
Hum
%
Delta-T
°C
Wind Press
QNH
hPa
Press
MSL
hPa
Rain
since 9 am
mm
Dir
 
Spd
km/h
Gust
km/h
Spd
kts
Gust
kts
20/11:30pm 26.9 26.2 15.3 49 7.1 SE 13 15 7 8 1012.6 1012.4 0.0
20/11:00pm 25.1 25.6 16.5 59 5.3 SSE 9 11 5 6 1012.6 1012.4 0.0
20/10:30pm 24.3 25.4 16.6 62 4.7 S 6 9 3 5 1012.7 1012.5 0.0
20/10:00pm 24.5 25.8 17.0 63 4.6 S 6 7 3 4 1012.7 1012.5 0.0
20/09:30pm 25.2 26.2 16.9 60 5.1 S 7 11 4 6 1012.3 1012.1 0.0
20/09:00pm 25.7 26.6 17.6 61 5.1 SSE 9 11 5 6 1012.1 1011.9 0.0
20/08:30pm 25.8 26.8 17.7 61 5.1 SSE 9 11 5 6 1011.9 1011.7 0.0
20/08:00pm 26.4 27.2 17.2 57 5.7 SSE 9 9 5 5 1011.3 1011.1 0.0
20/07:30pm 26.9 28.0 17.1 55 6.1 SSE 7 9 4 5 1011.0 1010.8 0.0
20/07:00pm 28.1 29.2 16.7 50 7.1 SSE 6 7 3 4 1010.7 1010.5 0.0
20/06:30pm 29.9 30.6 16.0 43 8.6 S 7 9 4 5 1010.3 1010.1 0.0
20/06:00pm 31.6 30.7 13.8 34 10.8 SE 11 15 6 8 1010.0 1009.8 0.0
20/05:30pm 32.3 30.7 14.0 33 11.1 SE 15 19 8 10 1009.7 1009.5 0.0
20/05:00pm 32.9 30.9 14.0 32 11.5 SSE 17 22 9 12 1009.4 1009.2 0.0
20/04:30pm 33.4 31.4 14.0 31 11.9 SE 17 24 9 13 1009.5 1009.3 0.0
20/04:00pm 33.4 31.1 14.0 31 11.8 SE 19 28 10 15 1009.4 1009.2 0.0
20/03:30pm 33.1 30.7 13.7 31 11.8 SE 19 28 10 15 1009.5 1009.3 0.0
20/03:00pm 32.9 29.4 13.5 30 11.8 SSE 24 30 13 16 1009.9 1009.7 0.0
20/02:30pm 33.3 30.7 13.9 31 11.8 SSE 20 28 11 15 1010.3 1010.1 0.0
20/02:00pm 32.9 30.4 14.0 32 11.5 SE 20 30 11 16 1010.7 1010.5 0.0
20/01:30pm 33.0 31.0 15.0 33 11.1 SE 19 26 10 14 1011.1 1010.9 0.0
20/01:00pm 32.1 29.1 13.8 33 11.1 SE 22 32 12 17 1011.7 1011.5 0.0
20/12:30pm 31.2 27.6 13.0 33 10.9 SE 24 35 13 19 1012.3 1012.1 0.0
20/12:00pm 30.5 26.7 12.4 33 10.7 SE 24 35 13 19 1012.7 1012.5 0.0
20/11:30am 30.3 27.0 14.0 37 9.8 SE 24 37 13 20 1012.9 1012.7 0.0
20/11:00am 29.7 26.2 13.5 37 9.7 SE 24 35 13 19 1013.1 1012.9 0.0
20/10:30am 29.1 25.7 13.7 38 9.2 SE 24 33 13 18 1013.3 1013.1 0.0
20/10:00am 28.5 24.3 13.6 40 8.9 SE 28 41 15 22 1013.2 1013.0 0.0
20/09:30am 28.0 24.4 13.1 39 8.8 SE 24 35 13 19 1013.1 1012.9 0.0
20/09:04am 27.3 22.4 12.5 40 8.6 ESE 30 50 16 27 1013.2 1013.0 0.0
20/09:00am 27.2 22.5 13.2 42 8.2 ESE 30 41 16 22 1013.2 1013.0 0.0
20/08:30am 26.8 23.9 13.9 45 7.7 SE 22 41 12 22 1013.2 1013.0 0.0
20/08:00am 26.0 22.5 13.5 46 7.4 SE 24 33 13 18 1013.2 1013.0 0.0
20/07:30am 25.7 22.8 13.9 48 7.0 SE 22 33 12 18 1013.1 1012.9 0.0
20/07:00am 25.6 22.2 13.8 48 7.0 SE 24 33 13 18 1012.6 1012.4 0.0
20/06:30am 25.6 22.8 14.4 50 6.7 SE 22 28 12 15 1012.3 1012.1 0.0
20/06:00am 25.8 23.1 14.6 50 6.7 SE 22 28 12 15 1011.8 1011.6 0.0
20/05:30am 25.9 23.6 14.7 50 6.7 SSE 20 28 11 15 1011.9 1011.7 0.0
20/05:00am 26.4 24.0 15.4 50 6.7 SE 22 33 12 18 1012.1 1011.9 0.0
20/04:30am 26.6 24.9 17.1 56 5.9 SSE 22 30 12 16 1011.8 1011.6 0.0
20/04:00am 26.7 26.0 18.3 60 5.3 SSE 19 26 10 14 1011.7 1011.5 0.0
20/03:30am 27.0 26.9 17.8 57 5.8 SSE 15 19 8 10 1011.5 1011.3 0.0
20/03:00am 25.7 26.4 17.9 62 4.9 SSE 11 15 6 8 1011.6 1011.4 0.0
20/02:30am 27.5 27.8 17.9 55 6.1 SE 13 17 7 9 1011.7 1011.5 0.0
20/02:00am 27.8 28.1 17.0 51 6.8 SE 11 15 6 8 1012.1 1011.9 0.0
20/01:30am 28.3 28.3 17.2 51 7.0 SE 13 20 7 11 1012.3 1012.1 0.0
20/01:00am 28.3 28.4 17.5 52 6.8 SE 13 17 7 9 1012.3 1012.1 0.0
20/12:30am 28.4 28.1 17.3 51 7.0 SE 15 19 8 10 1012.3 1012.1 0.0
20/12:00am 29.1 28.3 17.0 48 7.6 SE 17 20 9 11 1012.5 1012.3 0.0
 
Date/Time
CST
Temp
°C
App
Temp
°C
Dew
Point
Rel
Hum
%
Delta-T
°C
Wind Press
QNH
hPa
Press
MSL
hPa
Rain
since 9 am
mm
Dir
 
Spd
km/h
Gust
km/h
Spd
kts
Gust
kts
19/11:30pm 29.3 29.3 17.2 48 7.6 SE 13 19 7 10 1012.5 1012.3 0.0
19/11:00pm 29.4 29.8 17.2 47 7.7 SE 11 13 6 7 1012.5 1012.3 0.0
19/10:30pm 29.7 30.6 17.5 48 7.7 SE 9 13 5 7 1012.5 1012.3 0.0
19/10:00pm 29.7 30.5 17.2 47 7.9 ESE 9 11 5 6 1012.5 1012.3 0.0
19/09:30pm 29.8 30.5 17.9 48 7.6 ESE 11 15 6 8 1012.3 1012.1 0.0
19/09:00pm 29.5 30.6 18.9 53 6.9 ESE 11 13 6 7 1012.1 1011.9 0.0
19/08:30pm 26.4 29.3 20.7 71 3.8 ESE 6 7 3 4 1011.8 1011.6 0.0
19/08:00pm 26.7 30.7 20.5 69 4.1 CALM 0 0 0 0 1011.5 1011.3 0.0
19/07:30pm 28.1 32.0 20.4 63 5.1 CALM 0 0 0 0 1010.9 1010.7 0.0
19/07:00pm 29.9 32.3 19.6 54 6.7 ESE 6 7 3 4 1010.6 1010.4 0.0
19/06:30pm 32.1 33.7 18.3 44 8.9 ESE 7 9 4 5 1010.2 1010.0 0.0
19/06:00pm 33.3 34.9 18.3 41 9.7 E 7 11 4 6 1009.9 1009.7 0.0
19/05:30pm 34.0 34.8 18.1 39 10.3 ESE 11 17 6 9 1009.8 1009.6 0.0
19/05:00pm 34.3 35.8 18.8 40 10.2 ESE 9 13 5 7 1009.4 1009.2 0.0
19/04:30pm 34.4 34.4 18.0 37 10.7 E 15 20 8 11 1009.3 1009.1 0.0
19/04:00pm 34.6 34.3 18.2 37 10.7 ESE 17 26 9 14 1009.3 1009.1 0.0
19/03:30pm 34.0 33.2 17.2 36 10.8 SE 17 20 9 11 1009.3 1009.1 0.0
19/03:00pm 34.2 33.1 17.4 36 10.8 SE 19 26 10 14 1009.5 1009.3 0.0
19/02:30pm 34.5 34.1 18.1 37 10.7 SE 17 26 9 14 1009.7 1009.5 0.0
19/02:00pm 34.0 33.6 18.9 41 9.9 ESE 19 28 10 15 1010.1 1009.9 0.0
19/01:30pm 34.3 34.0 19.1 40 10.0 E 19 30 10 16 1010.6 1010.4 0.0
19/01:00pm 33.5 33.6 19.2 43 9.4 SSE 17 24 9 13 1011.1 1010.9 0.0
19/12:30pm 33.1 33.2 19.2 43 9.1 ESE 17 30 9 16 1011.5 1011.3 0.0
19/12:00pm 32.9 33.1 20.1 47 8.5 SE 19 26 10 14 1011.8 1011.6 0.0
19/11:30am 32.7 33.6 20.9 49 7.9 SE 17 20 9 11 1012.2 1012.0 0.0
19/11:00am 31.9 32.1 20.2 50 7.8 SE 19 24 10 13 1012.5 1012.3 0.0
19/10:30am 31.1 32.0 21.9 58 6.2 SE 20 26 11 14 1012.8 1012.6 0.0
19/10:00am 29.3 32.0 24.2 74 3.5 SE 17 24 9 13 1012.9 1012.7 0.0
19/09:30am 29.0 32.4 24.1 75 3.4 SE 13 17 7 9 1012.7 1012.5 0.0
19/09:00am 29.2 32.6 24.1 74 3.5 SSE 13 20 7 11 1012.7 1012.5 0.2
19/08:30am 29.4 33.5 24.0 72 3.7 ESE 9 17 5 9 1012.7 1012.5 0.2
19/08:00am 28.4 32.9 24.6 80 2.6 SE 9 13 5 7 1012.5 1012.3 0.2
19/07:30am 25.4 30.8 24.5 95 0.6 SSE 4 7 2 4 1012.3 1012.1 0.2
19/07:00am 25.0 30.9 24.1 95 0.6 CALM 0 0 0 0 1011.8 1011.6 0.2
19/06:30am 24.4 29.8 23.2 93 0.8 CALM 0 0 0 0 1011.6 1011.4 0.2
19/06:00am 24.7 30.3 23.5 93 0.8 CALM 0 0 0 0 1011.6 1011.4 0.2
19/05:30am 24.8 30.4 23.6 93 0.8 CALM 0 0 0 0 1011.3 1011.1 0.2
19/05:00am 25.2 31.2 24.2 94 0.7 CALM 0 0 0 0 1011.1 1010.9 0.2
19/04:30am 24.6 30.1 23.4 93 0.8 CALM 0 0 0 0 1011.0 1010.8 0.2
19/04:00am 24.8 30.3 23.4 92 1.0 CALM 0 0 0 0 1010.9 1010.7 0.2
19/03:30am 24.8 29.5 23.4 92 1.0 S 4 6 2 3 1010.8 1010.6 0.2
19/03:00am 25.2 29.4 23.4 90 1.2 S 7 9 4 5 1010.8 1010.6 0.2
19/02:30am 25.0 29.6 23.8 93 0.8 S 6 9 3 5 1011.0 1010.8 0.2
19/02:00am 24.8 30.0 23.6 93 0.8 ESE 2 6 1 3 1011.2 1011.0 0.2
19/01:30am 24.7 30.3 23.5 93 0.8 CALM 0 0 0 0 1011.4 1011.2 0.2
19/01:00am 24.8 30.3 23.4 92 1.0 CALM 0 0 0 0 1011.4 1011.2 0.2
19/12:30am 24.7 30.1 23.3 92 1.0 CALM 0 0 0 0 1011.6 1011.4 0.2
19/12:00am 24.8 30.2 23.2 91 1.1 CALM 0 0 0 0 1011.6 1011.4 0.2
 
Date/Time
CST
Temp
°C
App
Temp
°C
Dew
Point
Rel
Hum
%
Delta-T
°C
Wind Press
QNH
hPa
Press
MSL
hPa
Rain
since 9 am
mm
Dir
 
Spd
km/h
Gust
km/h
Spd
kts
Gust
kts
18/11:30pm 25.1 29.8 23.3 90 1.2 SSE 4 6 2 3 1011.6 1011.4 0.2
18/11:00pm 25.8 31.2 23.3 86 1.7 CALM 0 0 0 0 1011.6 1011.4 0.2
18/10:30pm 26.0 31.8 24.0 89 1.4 CALM 0 0 0 0 1011.7 1011.5 0.2
18/10:00pm 25.7 31.2 23.4 87 1.6 CALM 0 0 0 0 1011.6 1011.4 0.2
18/09:30pm 26.1 31.4 23.0 83 2.1 CALM 0 0 0 0 1011.6 1011.4 0.2
18/09:00pm 26.6 31.8 22.9 80 2.5 CALM 0 0 0 0 1011.1 1010.9 0.2
18/08:30pm 27.1 32.4 23.1 79 2.7 CALM 0 0 0 0 1010.8 1010.6 0.2
18/08:00pm 27.1 31.2 22.9 78 2.9 SW 6 7 3 4 1010.2 1010.0 0.2
18/07:30pm 27.7 31.8 22.9 75 3.3 W 6 7 3 4 1009.8 1009.6 0.2

Other Formats:

Comma delimited format used in spreadsheet applications
http://www.bom.gov.au/fwo/IDD60801/IDD60801.95111.axf

JavaScript Object Notation format (JSON) in row-major order
http://www.bom.gov.au/fwo/IDD60801/IDD60801.95111.json